createdAt,value
2023-02-15T00:01:11.581Z,84.69
2023-02-15T00:05:08.563Z,84.69
2023-02-15T00:10:08.115Z,84.69
2023-02-15T00:15:08.047Z,84.7
2023-02-15T00:20:08.003Z,84.7
2023-02-15T00:25:07.945Z,84.68
2023-02-15T00:30:07.932Z,84.68
2023-02-15T00:35:07.920Z,84.67
2023-02-15T00:40:08.884Z,84.69
2023-02-15T00:45:08.864Z,84.67
2023-02-15T00:50:08.826Z,84.71
2023-02-15T00:55:08.775Z,84.7
2023-02-15T01:00:08.744Z,84.71
2023-02-15T01:05:08.722Z,84.72
2023-02-15T01:10:08.689Z,84.7
2023-02-15T01:15:08.620Z,84.72
2023-02-15T01:20:08.572Z,84.71
2023-02-15T01:25:08.575Z,84.7
2023-02-15T01:30:08.579Z,84.69
2023-02-15T01:35:08.508Z,84.69
2023-02-15T01:40:08.483Z,84.7
2023-02-15T01:45:08.422Z,84.7
2023-02-15T01:50:18.345Z,84.69
2023-02-15T01:55:09.317Z,84.7
2023-02-15T02:00:08.394Z,84.68
2023-02-15T02:05:08.345Z,84.68
2023-02-15T02:10:08.354Z,84.68
2023-02-15T02:15:08.313Z,84.67
2023-02-15T02:20:08.267Z,84.65
2023-02-15T02:25:08.206Z,84.65
2023-02-15T02:30:08.184Z,84.65
2023-02-15T02:35:08.136Z,84.66
2023-02-15T02:40:18.056Z,84.67
2023-02-15T02:45:08.044Z,84.67
2023-02-15T02:50:07.972Z,84.66
2023-02-15T02:55:07.904Z,84.66
2023-02-15T03:00:09.025Z,84.64
2023-02-15T03:05:07.956Z,84.66
2023-02-15T03:10:07.844Z,84.66
2023-02-15T03:15:08.813Z,84.63
2023-02-15T03:20:08.771Z,84.65
2023-02-15T03:25:08.716Z,84.64
2023-02-15T03:30:08.734Z,84.64
2023-02-15T03:35:08.808Z,84.64
2023-02-15T03:40:08.802Z,84.65
2023-02-15T03:45:08.772Z,84.64
2023-02-15T03:50:18.690Z,84.65
2023-02-15T03:55:08.644Z,84.67
2023-02-15T04:00:08.553Z,84.63
2023-02-15T04:05:08.465Z,84.63
2023-02-15T04:10:08.404Z,84.65
2023-02-15T04:15:08.368Z,84.66
2023-02-15T04:20:08.354Z,84.67
2023-02-15T04:25:08.306Z,84.65
2023-02-15T04:30:08.310Z,84.67
2023-02-15T04:35:08.260Z,84.67
2023-02-15T04:40:08.196Z,84.64
2023-02-15T04:45:08.169Z,84.65
2023-02-15T04:50:08.141Z,84.67
2023-02-15T04:55:08.212Z,84.69
2023-02-15T05:00:08.235Z,84.67
2023-02-15T05:05:02.572Z,84.68
2023-02-15T05:10:02.811Z,84.66
2023-02-15T05:15:03.008Z,84.67
2023-02-15T05:20:03.021Z,84.65
2023-02-15T05:25:02.856Z,84.63
2023-02-15T05:30:02.995Z,84.65
2023-02-15T05:35:02.386Z,84.64
2023-02-15T05:40:02.672Z,84.65
2023-02-15T05:45:03.370Z,84.64
2023-02-15T05:50:02.629Z,84.65
2023-02-15T05:55:03.383Z,84.63
2023-02-15T06:00:02.670Z,84.67
2023-02-15T06:05:02.964Z,84.66
2023-02-15T06:10:02.360Z,84.68
2023-02-15T06:15:04.930Z,84.67
2023-02-15T06:20:02.141Z,84.66
2023-02-15T06:25:02.940Z,84.69
2023-02-15T06:30:04.324Z,84.71
2023-02-15T06:35:02.603Z,84.67
2023-02-15T06:40:04.014Z,84.67
2023-02-15T06:45:03.096Z,84.68
2023-02-15T06:50:02.545Z,84.67
2023-02-15T06:55:03.075Z,84.67
2023-02-15T07:00:02.447Z,84.69
2023-02-15T07:05:02.952Z,84.69
2023-02-15T07:10:02.504Z,84.65
2023-02-15T07:15:02.789Z,84.67
2023-02-15T07:20:03.194Z,84.66
2023-02-15T07:25:02.607Z,84.65
2023-02-15T07:30:02.805Z,84.68
2023-02-15T07:35:03.765Z,84.69
2023-02-15T07:40:03.327Z,84.66
2023-02-15T07:45:02.853Z,84.71
2023-02-15T07:50:07.570Z,84.73
2023-02-15T07:55:04.935Z,84.77
2023-02-15T08:00:03.455Z,84.79
2023-02-15T08:05:02.969Z,84.8
2023-02-15T08:10:05.713Z,84.82
2023-02-15T08:15:03.912Z,84.82
2023-02-15T08:20:13.028Z,84.82
2023-02-15T08:25:06.114Z,84.87
2023-02-15T08:30:04.323Z,84.86
2023-02-15T08:35:05.031Z,84.88
2023-02-15T08:40:04.213Z,84.91
2023-02-15T08:45:21.119Z,84.88
2023-02-15T08:50:08.906Z,84.85
2023-02-15T08:55:04.914Z,84.85
2023-02-15T09:00:04.056Z,84.83
2023-02-15T09:05:03.997Z,84.8
2023-02-15T09:10:02.951Z,84.79
2023-02-15T09:15:02.251Z,84.78
2023-02-15T09:20:03.190Z,84.72
2023-02-15T09:25:10.598Z,84.73
2023-02-15T09:30:04.051Z,84.67
2023-02-15T09:35:04.381Z,84.66
2023-02-15T09:40:04.232Z,84.63
2023-02-15T09:45:03.229Z,84.6
2023-02-15T09:50:03.034Z,84.6
2023-02-15T09:55:03.297Z,84.52
2023-02-15T10:00:03.183Z,84.55
2023-02-15T10:05:06.437Z,84.48
2023-02-15T10:10:20.454Z,84.48
2023-02-15T10:15:09.265Z,84.41
2023-02-15T10:20:05.107Z,84.39
2023-02-15T10:25:03.427Z,84.4
2023-02-15T10:30:05.406Z,84.39
2023-02-15T10:35:04.033Z,84.38
2023-02-15T10:40:06.076Z,84.34
2023-02-15T10:45:12.508Z,84.33
2023-02-15T10:50:03.115Z,84.32
2023-02-15T10:55:02.842Z,84.28
2023-02-15T11:00:05.165Z,84.29
2023-02-15T11:05:03.098Z,84.21
2023-02-15T11:10:03.437Z,84.22
2023-02-15T11:15:06.110Z,84.21
2023-02-15T11:20:03.569Z,84.18
2023-02-15T11:25:10.367Z,84.16
2023-02-15T11:30:02.657Z,84.12
2023-02-15T11:35:03.604Z,84.09
2023-02-15T11:40:10.965Z,84.09
2023-02-15T11:45:06.424Z,84.07
2023-02-15T11:50:04.011Z,84.03
2023-02-15T11:55:02.859Z,84.01
2023-02-15T12:00:13.652Z,83.96
2023-02-15T12:05:12.922Z,83.96
2023-02-15T12:10:06.222Z,83.92
2023-02-15T12:15:04.534Z,83.9
2023-02-15T12:20:05.156Z,83.85
2023-02-15T12:25:02.747Z,83.81
2023-02-15T12:30:04.089Z,83.83
2023-02-15T12:35:02.892Z,83.76
2023-02-15T12:40:05.423Z,83.68
2023-02-15T12:45:03.722Z,83.65
2023-02-15T12:50:12.205Z,83.66
2023-02-15T12:55:05.277Z,83.63
2023-02-15T13:00:13.809Z,83.6
2023-02-15T13:05:04.516Z,83.59
2023-02-15T13:10:04.242Z,83.52
2023-02-15T13:15:04.254Z,83.51
2023-02-15T13:20:12.378Z,83.49
2023-02-15T13:25:03.586Z,83.46
2023-02-15T13:30:05.627Z,83.41
2023-02-15T13:35:06.502Z,83.38
2023-02-15T13:40:12.598Z,83.39
2023-02-15T13:45:03.416Z,83.36
2023-02-15T13:50:12.851Z,83.34
2023-02-15T13:55:19.950Z,83.32
2023-02-15T14:00:02.763Z,83.31
2023-02-15T14:05:13.202Z,83.34
2023-02-15T14:10:07.918Z,83.31
2023-02-15T14:15:03.566Z,83.33
2023-02-15T14:20:24.920Z,83.29
2023-02-15T14:25:10.087Z,83.3
2023-02-15T14:30:03.897Z,83.27
2023-02-15T14:35:13.530Z,83.27
2023-02-15T14:40:05.974Z,83.24
2023-02-15T14:45:14.970Z,83.26
2023-02-15T14:50:08.799Z,83.25
2023-02-15T14:55:06.903Z,83.24
2023-02-15T15:00:06.229Z,83.22
2023-02-15T15:05:09.513Z,83.24
2023-02-15T15:10:03.163Z,83.2
2023-02-15T15:15:13.916Z,83.17
2023-02-15T15:20:04.586Z,83.17
2023-02-15T15:25:03.808Z,83.17
2023-02-15T15:30:14.617Z,83.16
2023-02-15T15:35:05.457Z,83.14
2023-02-15T15:40:12.760Z,83.16
2023-02-15T15:45:03.102Z,83.15
2023-02-15T15:50:03.341Z,83.17
2023-02-15T15:55:02.821Z,83.17
2023-02-15T16:00:02.984Z,83.14
2023-02-15T16:05:03.544Z,83.13
2023-02-15T16:10:03.843Z,83.13
2023-02-15T16:15:05.259Z,83.12
2023-02-15T16:20:13.752Z,83.1
2023-02-15T16:25:06.214Z,83.09
2023-02-15T16:30:02.754Z,83.07
2023-02-15T16:35:03.174Z,83.05
2023-02-15T16:40:12.406Z,83.0
2023-02-15T16:45:02.409Z,83.0
2023-02-15T16:50:02.393Z,82.98
2023-02-15T16:55:02.462Z,83.01
2023-02-15T17:00:02.512Z,83.01
2023-02-15T17:05:02.732Z,83.04
2023-02-15T17:10:02.922Z,83.04
2023-02-15T17:15:02.933Z,83.04
2023-02-15T17:20:02.008Z,83.08
2023-02-15T17:25:02.124Z,83.1
2023-02-15T17:30:02.554Z,83.08
2023-02-15T17:35:02.704Z,83.08
2023-02-15T17:40:02.763Z,83.13
2023-02-15T17:45:02.854Z,83.14
2023-02-15T17:50:02.839Z,83.18
2023-02-15T17:55:02.894Z,83.2
2023-02-15T18:00:03.200Z,83.23
2023-02-15T18:05:02.421Z,83.23
2023-02-15T18:10:02.893Z,83.22
2023-02-15T18:15:03.041Z,83.22
2023-02-15T18:20:02.139Z,83.28
2023-02-15T18:25:02.207Z,83.27
2023-02-15T18:30:02.400Z,83.28
2023-02-15T18:35:02.584Z,83.29
2023-02-15T18:40:02.793Z,83.29
2023-02-15T18:45:02.829Z,83.29
2023-02-15T18:50:02.844Z,83.32
2023-02-15T18:55:03.011Z,83.34
2023-02-15T19:00:02.107Z,83.34
2023-02-15T19:05:02.248Z,83.35
2023-02-15T19:10:02.251Z,83.34
2023-02-15T19:15:02.345Z,83.36
2023-02-15T19:20:02.484Z,83.38
2023-02-15T19:25:02.615Z,83.36
2023-02-15T19:30:02.682Z,83.38
2023-02-15T19:35:02.702Z,83.38
2023-02-15T19:40:02.719Z,83.39
2023-02-15T19:45:02.807Z,83.41
2023-02-15T19:50:02.781Z,83.41
2023-02-15T19:55:02.917Z,83.41
2023-02-15T20:00:15.908Z,83.43
2023-02-15T20:05:02.061Z,83.45
2023-02-15T20:10:02.110Z,83.46
2023-02-15T20:15:02.280Z,83.46
2023-02-15T20:20:02.426Z,83.48
2023-02-15T20:25:02.643Z,83.48
2023-02-15T20:30:02.764Z,83.48
2023-02-15T20:35:02.849Z,83.48
2023-02-15T20:40:02.945Z,83.51
2023-02-15T20:45:01.964Z,83.49
2023-02-15T20:50:01.996Z,83.51
2023-02-15T20:55:02.082Z,83.54
2023-02-15T21:00:02.207Z,83.54
2023-02-15T21:05:02.312Z,83.54
2023-02-15T21:10:02.463Z,83.56
2023-02-15T21:15:02.627Z,83.55
2023-02-15T21:20:02.814Z,83.57
2023-02-15T21:25:03.087Z,83.59
2023-02-15T21:30:02.459Z,83.58
2023-02-15T21:35:02.705Z,83.6
2023-02-15T21:40:02.880Z,83.6
2023-02-15T21:45:02.989Z,83.6
2023-02-15T21:50:02.120Z,83.61
2023-02-15T21:55:02.509Z,83.62
2023-02-15T22:00:02.613Z,83.62
2023-02-15T22:05:15.538Z,83.62
2023-02-15T22:10:08.537Z,83.63
2023-02-15T22:15:08.496Z,83.62
2023-02-15T22:20:08.601Z,83.64
2023-02-15T22:25:08.523Z,83.64
2023-02-15T22:30:08.551Z,83.66
2023-02-15T22:35:08.526Z,83.67
2023-02-15T22:40:08.480Z,83.65
2023-02-15T22:45:08.386Z,83.67
2023-02-15T22:50:08.269Z,83.64
2023-02-15T22:55:08.291Z,83.63
2023-02-15T23:00:08.236Z,83.66
2023-02-15T23:05:08.261Z,83.68
2023-02-15T23:10:08.239Z,83.65
2023-02-15T23:15:08.272Z,83.65
2023-02-15T23:20:08.210Z,83.66
2023-02-15T23:25:08.174Z,83.65
2023-02-15T23:30:08.229Z,83.63
2023-02-15T23:35:08.225Z,83.65
2023-02-15T23:40:08.255Z,83.64
2023-02-15T23:45:08.210Z,83.63
2023-02-15T23:50:08.183Z,83.65
2023-02-15T23:55:08.086Z,83.62
